Time;durP1;ratioP1;P1;durP2;ratioP2;P2;SDS_P1;SDS_P2;PMS_P1;PMS_P2;Temp;Humidity;BMP_temperature;BMP_pressure;BME280_temperature;BME280_humidity;BME280_pressure;Samples;Min_cycle;Max_cycle;Signal;HPM_P1;HPM_P2
2023/07/02 00:01:51;;;;;;;6.23;3.10;;;19.00;35.70;;;;;;5028323;28;21049;-67
2023/07/02 00:04:19;;;;;;;6.47;3.20;;;19.00;35.80;;;;;;5029665;28;20490;-67
2023/07/02 00:06:46;;;;;;;5.77;2.77;;;19.00;35.80;;;;;;5027058;28;20479;-68
2023/07/02 00:09:14;;;;;;;5.70;2.60;;;19.00;35.90;;;;;;5028230;28;20963;-67
2023/07/02 00:11:43;;;;;;;5.77;2.30;;;19.00;35.80;;;;;;5027710;28;20481;-67
2023/07/02 00:14:11;;;;;;;4.57;1.90;;;19.00;35.80;;;;;;5026236;28;20487;-68
2023/07/02 00:16:40;;;;;;;5.93;2.40;;;18.90;36.20;;;;;;5028012;28;20466;-68
2023/07/02 00:19:07;;;;;;;5.90;2.20;;;18.90;36.50;;;;;;5028609;28;20471;-69
2023/07/02 00:21:33;;;;;;;5.53;2.10;;;18.90;36.60;;;;;;5029162;28;20463;-68
2023/07/02 00:24:01;;;;;;;6.07;2.10;;;18.80;36.50;;;;;;5024288;28;20493;-68
2023/07/02 00:26:28;;;;;;;5.37;1.90;;;18.80;36.50;;;;;;5025408;28;21093;-68
2023/07/02 00:28:56;;;;;;;4.77;1.67;;;18.80;37.40;;;;;;5025543;28;20828;-68
2023/07/02 00:31:25;;;;;;;4.87;2.10;;;18.80;36.80;;;;;;5024675;28;20479;-68
2023/07/02 00:33:52;;;;;;;6.03;1.53;;;18.80;37.00;;;;;;5022803;28;20486;-68
2023/07/02 00:36:19;;;;;;;4.93;1.50;;;18.80;37.00;;;;;;5028143;28;20501;-68
2023/07/02 00:38:46;;;;;;;4.70;1.90;;;18.90;37.00;;;;;;5025023;28;20467;-69
2023/07/02 00:41:13;;;;;;;5.73;1.90;;;18.90;37.30;;;;;;5024637;28;20478;-68
2023/07/02 00:43:43;;;;;;;4.40;1.87;;;18.90;37.40;;;;;;5019692;28;20495;-68
2023/07/02 00:46:12;;;;;;;4.90;1.80;;;18.90;37.40;;;;;;5027958;28;20486;-68
2023/07/02 00:48:41;;;;;;;5.10;2.07;;;18.90;37.40;;;;;;5024940;28;20955;-68
2023/07/02 00:51:08;;;;;;;4.80;1.77;;;19.00;37.20;;;;;;5025977;28;20471;-67
2023/07/02 00:53:35;;;;;;;5.53;2.00;;;18.90;37.10;;;;;;5020729;28;20999;-68
2023/07/02 00:56:02;;;;;;;5.17;1.70;;;19.00;37.10;;;;;;5028503;28;20465;-67
2023/07/02 00:58:29;;;;;;;4.70;1.80;;;19.00;37.00;;;;;;5027879;28;20467;-68
2023/07/02 01:00:57;;;;;;;4.60;1.87;;;19.00;36.80;;;;;;5025032;28;20845;-67
2023/07/02 01:03:23;;;;;;;4.47;1.63;;;19.10;36.80;;;;;;5023498;28;20490;-67
2023/07/02 01:05:51;;;;;;;5.50;2.00;;;19.00;36.60;;;;;;5025543;28;20478;-66
2023/07/02 01:08:18;;;;;;;5.43;1.80;;;19.00;36.80;;;;;;5024941;28;20455;-68
2023/07/02 01:10:45;;;;;;;5.50;2.07;;;19.10;36.70;;;;;;5021518;28;20463;-68
2023/07/02 01:13:15;;;;;;;4.60;1.70;;;19.00;36.60;;;;;;5027366;28;20476;-68
2023/07/02 01:15:45;;;;;;;6.30;2.13;;;19.10;37.00;;;;;;5025470;28;20473;-68
2023/07/02 01:18:14;;;;;;;12.80;2.97;;;19.10;37.10;;;;;;5026941;28;20474;-68
2023/07/02 01:20:43;;;;;;;10.20;3.00;;;19.20;37.40;;;;;;5024177;28;20466;-67
2023/07/02 01:23:10;;;;;;;7.03;2.67;;;19.20;35.00;;;;;;5023418;28;20486;-68
2023/07/02 01:25:37;;;;;;;6.73;2.67;;;19.10;33.10;;;;;;5026614;28;20474;-68
2023/07/02 01:28:04;;;;;;;5.60;2.80;;;19.20;33.40;;;;;;5025379;28;20486;-68
2023/07/02 01:30:31;;;;;;;6.30;2.47;;;19.10;33.50;;;;;;5027018;28;20471;-67
2023/07/02 01:32:58;;;;;;;6.57;2.50;;;19.10;33.30;;;;;;5023212;28;20487;-68
2023/07/02 01:35:24;;;;;;;6.20;2.83;;;19.00;33.30;;;;;;5022186;28;20466;-68
2023/07/02 01:37:53;;;;;;;4.97;2.67;;;18.90;33.70;;;;;;5027338;28;20829;-68
2023/07/02 01:40:20;;;;;;;6.03;3.20;;;18.80;34.20;;;;;;5025304;28;20467;-68
2023/07/02 01:42:46;;;;;;;7.50;3.30;;;18.70;34.30;;;;;;5024030;28;20507;-67
2023/07/02 01:45:13;;;;;;;7.00;3.00;;;18.60;34.20;;;;;;5025711;28;20495;-68
2023/07/02 01:47:40;;;;;;;10.43;3.70;;;18.60;34.40;;;;;;5026787;28;20483;-68
2023/07/02 01:50:07;;;;;;;5.93;3.17;;;18.50;34.60;;;;;;5027559;28;20463;-67
2023/07/02 01:52:34;;;;;;;7.00;3.10;;;18.50;34.60;;;;;;5022537;28;20471;-68
2023/07/02 01:55:03;;;;;;;6.50;3.30;;;18.40;34.20;;;;;;5027947;28;20478;-68
2023/07/02 01:57:30;;;;;;;8.90;4.17;;;18.40;34.20;;;;;;5026203;28;20463;-67
2023/07/02 01:59:58;;;;;;;7.03;3.20;;;18.30;34.10;;;;;;5025967;28;20466;-68
2023/07/02 02:02:24;;;;;;;9.63;3.33;;;18.30;33.90;;;;;;5026534;28;20483;-68
2023/07/02 02:04:51;;;;;;;10.00;3.87;;;18.20;33.60;;;;;;5026147;28;20479;-68
2023/07/02 02:07:18;;;;;;;8.77;3.67;;;18.20;33.60;;;;;;5026419;28;20489;-67
2023/07/02 02:09:44;;;;;;;7.00;3.80;;;18.10;33.30;;;;;;5025275;28;20462;-68
2023/07/02 02:12:14;;;;;;;7.27;3.53;;;18.10;33.30;;;;;;5023909;28;20474;-68
2023/07/02 02:14:40;;;;;;;6.60;3.50;;;18.00;33.20;;;;;;5026213;28;20478;-67
2023/07/02 02:17:07;;;;;;;7.70;3.80;;;18.00;33.20;;;;;;5026460;28;20459;-67
2023/07/02 02:19:34;;;;;;;7.50;3.70;;;18.00;32.90;;;;;;5027589;28;21110;-68
2023/07/02 02:22:00;;;;;;;8.83;3.77;;;18.00;33.00;;;;;;5024984;28;20466;-68
2023/07/02 02:24:27;;;;;;;8.27;3.60;;;18.00;33.00;;;;;;5025052;28;20474;-69
2023/07/02 02:26:54;;;;;;;9.60;3.63;;;18.00;33.30;;;;;;5027367;28;20605;-67
2023/07/02 02:29:22;;;;;;;9.13;3.80;;;18.00;33.40;;;;;;5019908;28;20849;-68
2023/07/02 02:31:49;;;;;;;7.93;3.70;;;17.90;33.70;;;;;;5024918;28;20487;-68
2023/07/02 02:34:15;;;;;;;8.50;3.50;;;17.90;34.10;;;;;;5026955;28;20497;-67
2023/07/02 02:36:42;;;;;;;6.57;3.67;;;17.90;34.10;;;;;;5031290;28;20439;-67
2023/07/02 02:39:09;;;;;;;8.17;4.40;;;17.90;33.90;;;;;;5049533;28;20451;-68
2023/07/02 02:41:35;;;;;;;6.17;3.43;;;18.00;33.90;;;;;;5046726;28;21006;-68
2023/07/02 02:44:02;;;;;;;6.80;3.93;;;18.00;33.20;;;;;;5025226;28;20510;-67
2023/07/02 02:46:30;;;;;;;8.30;3.83;;;18.00;33.00;;;;;;5025879;28;20474;-67
2023/07/02 02:48:57;;;;;;;6.87;3.97;;;18.00;32.90;;;;;;5024480;28;20501;-68
2023/07/02 02:51:24;;;;;;;6.63;3.60;;;17.90;32.90;;;;;;5024405;28;20481;-68
2023/07/02 02:53:50;;;;;;;10.67;3.93;;;17.80;32.70;;;;;;5025030;28;20483;-68
2023/07/02 02:56:17;;;;;;;7.03;3.73;;;17.80;32.80;;;;;;5026965;28;20458;-67
2023/07/02 02:58:45;;;;;;;9.20;4.10;;;17.70;32.70;;;;;;5026562;28;20459;-69
2023/07/02 03:01:11;;;;;;;6.83;3.70;;;17.60;32.50;;;;;;5025088;28;20486;-68
2023/07/02 03:03:45;;;;;;;9.30;3.57;;;17.50;32.70;;;;;;5025850;28;20483;-68
2023/07/02 03:06:12;;;;;;;7.53;3.93;;;17.50;32.90;;;;;;5021231;28;20474;-67
2023/07/02 03:08:40;;;;;;;8.33;4.13;;;17.40;33.40;;;;;;5024910;28;20972;-68
2023/07/02 03:11:07;;;;;;;9.70;3.50;;;17.40;33.20;;;;;;5025909;28;20470;-68
2023/07/02 03:13:33;;;;;;;9.20;4.37;;;17.40;33.40;;;;;;5025804;28;20490;-68
2023/07/02 03:16:00;;;;;;;11.13;4.30;;;17.40;33.80;;;;;;5023899;28;20993;-68
2023/07/02 03:18:27;;;;;;;9.93;4.30;;;17.30;34.20;;;;;;5020013;28;20963;-68
2023/07/02 03:20:55;;;;;;;7.70;4.17;;;17.20;34.30;;;;;;5025512;28;20471;-68
2023/07/02 03:23:22;;;;;;;8.00;4.47;;;17.20;34.70;;;;;;5025494;28;20487;-68
2023/07/02 03:25:48;;;;;;;10.60;4.20;;;17.20;34.70;;;;;;5015990;28;20483;-69
2023/07/02 03:28:15;;;;;;;7.03;3.93;;;17.10;35.00;;;;;;5028535;28;20475;-68
2023/07/02 03:30:42;;;;;;;7.57;4.60;;;17.10;35.30;;;;;;5025162;28;20475;-68
2023/07/02 03:33:09;;;;;;;10.00;4.00;;;17.10;35.40;;;;;;5023931;28;20839;-67
2023/07/02 03:35:36;;;;;;;7.73;4.40;;;17.10;35.50;;;;;;5018725;28;20483;-68
2023/07/02 03:38:04;;;;;;;7.20;3.70;;;17.00;35.60;;;;;;5030402;28;20457;-68
2023/07/02 03:40:31;;;;;;;7.07;4.33;;;17.00;35.80;;;;;;5024932;28;20466;-67
2023/07/02 03:42:58;;;;;;;7.13;4.40;;;17.10;35.80;;;;;;5027404;28;20489;-67
2023/07/02 03:45:25;;;;;;;7.50;4.13;;;17.10;35.90;;;;;;5026267;28;20472;-68
2023/07/02 03:47:52;;;;;;;7.57;4.10;;;17.10;35.90;;;;;;5028027;28;20482;-67
2023/07/02 03:50:19;;;;;;;7.03;4.40;;;17.10;36.10;;;;;;5028373;28;21019;-67
2023/07/02 03:52:45;;;;;;;10.70;4.60;;;17.10;36.30;;;;;;5028568;28;20471;-68
2023/07/02 03:55:13;;;;;;;7.37;4.17;;;17.20;36.20;;;;;;5029822;28;20463;-67
2023/07/02 03:57:40;;;;;;;8.93;4.37;;;17.20;36.20;;;;;;5027834;28;20463;-67
2023/07/02 04:00:09;;;;;;;7.57;4.67;;;17.20;36.30;;;;;;5028958;28;21053;-68
2023/07/02 04:02:36;;;;;;;11.17;4.60;;;17.30;36.30;;;;;;5024020;28;20517;-67
2023/07/02 04:05:03;;;;;;;10.43;6.10;;;17.40;36.40;;;;;;5027198;28;20470;-67
2023/07/02 04:07:30;;;;;;;8.57;4.60;;;17.40;36.10;;;;;;5024369;28;20498;-68
2023/07/02 04:09:57;;;;;;;7.30;4.57;;;17.50;35.80;;;;;;5023827;28;20463;-68
2023/07/02 04:12:25;;;;;;;8.80;4.63;;;17.50;35.80;;;;;;5027619;28;20822;-68
2023/07/02 04:14:51;;;;;;;9.00;4.50;;;17.60;36.50;;;;;;5052690;22;20854;-64
2023/07/02 04:17:18;;;;;;;6.90;4.03;;;17.60;35.70;;;;;;5041597;28;20478;-64
2023/07/02 04:19:45;;;;;;;8.80;4.57;;;17.60;35.80;;;;;;5048383;28;20476;-64
2023/07/02 04:22:12;;;;;;;8.80;4.77;;;17.60;35.70;;;;;;5044686;28;20466;-65
2023/07/02 04:24:38;;;;;;;8.93;4.47;;;17.60;35.90;;;;;;5046081;28;21012;-64
2023/07/02 04:27:06;;;;;;;7.70;3.70;;;17.60;35.90;;;;;;5047236;28;20469;-65
2023/07/02 04:29:34;;;;;;;9.40;4.77;;;17.50;36.10;;;;;;5043805;28;21014;-65
2023/07/02 04:32:01;;;;;;;8.87;4.40;;;17.60;36.00;;;;;;5047852;28;20493;-65
2023/07/02 04:34:27;;;;;;;7.30;4.50;;;17.60;36.10;;;;;;5047198;28;20489;-65
2023/07/02 04:36:54;;;;;;;7.47;4.70;;;17.60;36.30;;;;;;5045921;28;20465;-65
2023/07/02 04:39:21;;;;;;;8.80;5.03;;;17.60;36.70;;;;;;5050507;28;20506;-65
2023/07/02 04:41:52;;;;;;;8.43;4.73;;;17.60;36.80;;;;;;5045694;28;21049;-65
2023/07/02 04:44:20;;;;;;;9.30;4.70;;;17.60;37.00;;;;;;5043940;28;20490;-64
2023/07/02 04:46:48;;;;;;;9.80;4.20;;;17.60;37.00;;;;;;5053560;28;20454;-64
2023/07/02 04:49:15;;;;;;;9.00;4.73;;;17.60;36.80;;;;;;5044387;28;20470;-65
2023/07/02 04:51:42;;;;;;;9.97;5.20;;;17.60;37.10;;;;;;5046582;28;20488;-65
2023/07/02 04:54:09;;;;;;;8.00;4.93;;;17.70;37.60;;;;;;5046959;28;20509;-64
2023/07/02 04:56:35;;;;;;;8.30;5.07;;;17.70;38.00;;;;;;5050049;28;20466;-65
2023/07/02 04:59:02;;;;;;;7.30;4.50;;;17.70;38.10;;;;;;5047030;28;20477;-65
2023/07/02 05:01:29;;;;;;;10.63;5.13;;;17.70;38.40;;;;;;5045589;28;20525;-65
2023/07/02 05:03:57;;;;;;;10.90;6.10;;;17.80;38.50;;;;;;5047457;28;20486;-65
2023/07/02 05:06:23;;;;;;;7.60;4.47;;;17.80;38.20;;;;;;5046740;28;20465;-65
2023/07/02 05:08:51;;;;;;;11.73;5.00;;;17.80;38.20;;;;;;5048211;28;20470;-65
2023/07/02 05:11:18;;;;;;;7.30;4.33;;;17.90;37.70;;;;;;5047012;28;21173;-65
2023/07/02 05:13:44;;;;;;;8.80;4.30;;;17.90;37.40;;;;;;5038733;28;20489;-65
2023/07/02 05:16:11;;;;;;;13.30;4.17;;;17.90;37.20;;;;;;5046149;28;20569;-65
2023/07/02 05:18:38;;;;;;;7.30;4.13;;;18.00;36.10;;;;;;5046445;28;20486;-65
2023/07/02 05:21:06;;;;;;;8.27;4.40;;;17.90;36.20;;;;;;5047300;28;20465;-65
2023/07/02 05:23:33;;;;;;;7.50;4.13;;;17.90;35.90;;;;;;5046410;28;20477;-65
2023/07/02 05:25:59;;;;;;;6.20;3.80;;;17.90;35.30;;;;;;5044711;28;20481;-65
2023/07/02 05:28:26;;;;;;;7.67;3.63;;;18.00;35.50;;;;;;5047453;28;20470;-65
2023/07/02 05:30:53;;;;;;;9.63;4.43;;;18.00;35.40;;;;;;5044673;28;20473;-65
2023/07/02 05:33:19;;;;;;;8.97;4.10;;;17.90;35.50;;;;;;5045883;28;20489;-64
2023/07/02 05:35:46;;;;;;;9.57;4.67;;;17.90;35.20;;;;;;5045606;28;20458;-64
2023/07/02 05:38:15;;;;;;;10.30;3.90;;;17.90;35.30;;;;;;5048187;28;21013;-64
2023/07/02 05:40:42;;;;;;;10.40;4.50;;;17.90;34.80;;;;;;5047765;28;20458;-65
2023/07/02 05:43:08;;;;;;;9.00;4.13;;;17.80;34.80;;;;;;5045465;28;20532;-64
2023/07/02 05:45:35;;;;;;;7.67;4.00;;;17.80;34.60;;;;;;5046961;28;20481;-64
2023/07/02 05:48:02;;;;;;;7.10;3.80;;;17.80;34.40;;;;;;5049963;28;20473;-65
2023/07/02 05:50:28;;;;;;;11.27;3.77;;;17.90;34.10;;;;;;5051184;28;20473;-64
2023/07/02 05:52:55;;;;;;;10.40;4.60;;;17.90;34.30;;;;;;5051460;28;20460;-65
2023/07/02 05:55:23;;;;;;;6.90;3.30;;;17.80;34.50;;;;;;5064586;28;20473;-65
2023/07/02 05:57:50;;;;;;;10.40;3.93;;;17.80;34.60;;;;;;5047302;28;20486;-64
2023/07/02 06:00:17;;;;;;;6.97;3.50;;;17.80;34.50;;;;;;5046405;28;20474;-65
2023/07/02 06:02:47;;;;;;;6.73;3.33;;;17.90;34.70;;;;;;5044694;28;20458;-64
2023/07/02 06:05:14;;;;;;;6.47;3.50;;;18.00;34.50;;;;;;5043432;28;21487;-65
2023/07/02 06:07:41;;;;;;;8.03;3.20;;;18.10;34.40;;;;;;5041882;28;20480;-65
2023/07/02 06:10:08;;;;;;;5.90;2.57;;;18.20;34.00;;;;;;5043797;28;20485;-66
2023/07/02 06:12:36;;;;;;;5.40;2.50;;;18.40;33.40;;;;;;5038757;28;20465;-67
2023/07/02 06:15:03;;;;;;;6.63;2.83;;;18.60;33.00;;;;;;5043130;28;20462;-65
2023/07/02 06:17:30;;;;;;;5.40;2.23;;;18.70;32.70;;;;;;5038551;28;20911;-66
2023/07/02 06:19:57;;;;;;;7.03;2.87;;;18.70;32.80;;;;;;5046538;28;20457;-65
2023/07/02 06:22:24;;;;;;;6.27;3.10;;;18.70;32.80;;;;;;5042776;28;20461;-65
2023/07/02 06:24:50;;;;;;;6.10;2.73;;;18.80;32.50;;;;;;5040886;28;20865;-65
2023/07/02 06:27:17;;;;;;;6.07;2.50;;;18.90;32.50;;;;;;5044674;28;20466;-64
2023/07/02 06:29:45;;;;;;;6.90;2.60;;;19.00;32.30;;;;;;5045482;28;20469;-64
2023/07/02 06:32:12;;;;;;;5.10;2.10;;;19.20;31.70;;;;;;5042421;28;20539;-64
2023/07/02 06:34:39;;;;;;;7.30;2.27;;;19.30;31.90;;;;;;5042126;28;20489;-64
2023/07/02 06:37:06;;;;;;;7.20;2.50;;;19.50;31.40;;;;;;5045198;28;20475;-64
2023/07/02 06:39:32;;;;;;;5.53;2.53;;;19.70;30.50;;;;;;5038499;28;20474;-65
2023/07/02 06:41:59;;;;;;;6.67;2.23;;;19.90;30.00;;;;;;5044207;28;20466;-64
2023/07/02 06:44:26;;;;;;;5.07;2.17;;;20.00;28.90;;;;;;5042133;28;20555;-64
2023/07/02 06:46:54;;;;;;;5.77;1.90;;;20.00;28.10;;;;;;5044927;28;20469;-64
2023/07/02 06:49:21;;;;;;;4.77;1.73;;;20.10;28.20;;;;;;5042906;28;20466;-65
2023/07/02 06:51:48;;;;;;;4.80;2.23;;;20.00;28.00;;;;;;5039354;28;20466;-64
2023/07/02 06:54:15;;;;;;;5.27;2.10;;;20.00;27.80;;;;;;5043048;28;22750;-64
2023/07/02 06:56:41;;;;;;;4.90;2.00;;;20.10;28.00;;;;;;5045266;28;20472;-64
2023/07/02 06:59:08;;;;;;;5.03;2.17;;;20.40;28.10;;;;;;5046111;28;20478;-64
2023/07/02 07:01:36;;;;;;;5.73;2.50;;;21.00;27.30;;;;;;5045325;28;20968;-65
2023/07/02 07:04:04;;;;;;;5.70;1.93;;;22.20;24.50;;;;;;5043779;28;20582;-65
2023/07/02 07:06:31;;;;;;;5.40;2.07;;;25.20;19.30;;;;;;5044249;28;20454;-65
2023/07/02 07:08:57;;;;;;;4.97;1.60;;;27.50;11.60;;;;;;5044925;28;20463;-65
2023/07/02 07:11:24;;;;;;;4.60;2.00;;;27.60;9.20;;;;;;5046235;28;20470;-65
2023/07/02 07:13:51;;;;;;;4.57;1.70;;;27.10;9.00;;;;;;5039399;28;21033;-65
2023/07/02 07:16:18;;;;;;;4.67;2.00;;;27.00;9.80;;;;;;5044704;28;20462;-65
2023/07/02 07:18:45;;;;;;;4.50;2.00;;;26.80;9.40;;;;;;5046290;28;20504;-65
2023/07/02 07:21:13;;;;;;;4.70;1.87;;;26.40;9.80;;;;;;5047327;28;20508;-65
2023/07/02 07:23:40;;;;;;;4.83;1.97;;;25.80;10.60;;;;;;5044934;28;20477;-64
2023/07/02 07:26:07;;;;;;;4.50;1.73;;;26.00;11.60;;;;;;5049742;28;20465;-65
2023/07/02 07:28:33;;;;;;;4.67;2.03;;;27.20;10.20;;;;;;5049421;28;20462;-65
2023/07/02 07:31:00;;;;;;;4.90;1.93;;;27.60;8.40;;;;;;5050799;28;20849;-65
2023/07/02 07:33:27;;;;;;;7.27;2.30;;;27.50;8.20;;;;;;5051075;28;20489;-64
2023/07/02 07:35:54;;;;;;;4.97;2.03;;;27.20;8.20;;;;;;5047238;28;20466;-65
2023/07/02 07:38:22;;;;;;;5.70;2.33;;;26.70;8.20;;;;;;5050590;28;20503;-65
2023/07/02 07:40:48;;;;;;;5.20;2.70;;;26.20;9.30;;;;;;5047581;28;20458;-64
2023/07/02 07:43:15;;;;;;;6.20;2.97;;;25.70;10.20;;;;;;5045580;28;20478;-64
2023/07/02 07:45:42;;;;;;;6.00;2.50;;;25.50;11.20;;;;;;5049328;28;20465;-65
2023/07/02 07:48:09;;;;;;;5.63;2.60;;;25.50;11.20;;;;;;5048789;28;20485;-65
2023/07/02 07:50:35;;;;;;;6.80;3.13;;;25.80;10.80;;;;;;5050257;28;20980;-65
2023/07/02 07:53:03;;;;;;;8.13;4.13;;;25.80;10.80;;;;;;5049414;28;20481;-65
2023/07/02 07:55:31;;;;;;;8.40;4.40;;;25.80;10.40;;;;;;5046948;28;20520;-64
2023/07/02 07:57:57;;;;;;;9.10;5.00;;;25.80;9.90;;;;;;5047754;28;20466;-65
2023/07/02 08:00:25;;;;;;;9.13;4.80;;;25.70;10.00;;;;;;5050504;28;20477;-64
2023/07/02 08:02:55;;;;;;;7.43;4.10;;;25.80;9.60;;;;;;5050098;28;20464;-65
2023/07/02 08:05:22;;;;;;;10.87;4.63;;;25.70;9.50;;;;;;5042628;28;20462;-65
2023/07/02 08:07:48;;;;;;;11.93;4.53;;;25.80;9.60;;;;;;5049213;28;20827;-64
2023/07/02 08:10:15;;;;;;;8.70;4.70;;;26.20;8.60;;;;;;5051526;28;20465;-65
2023/07/02 08:12:43;;;;;;;10.13;4.47;;;26.60;8.10;;;;;;5045746;28;20851;-64
2023/07/02 08:15:10;;;;;;;9.13;4.80;;;26.80;7.30;;;;;;5048033;28;20472;-64
2023/07/02 08:17:37;;;;;;;8.37;4.97;;;26.60;6.80;;;;;;5048029;28;20581;-65
2023/07/02 08:20:09;;;;;;;8.40;4.33;;;26.70;7.00;;;;;;5049493;28;20482;-64
2023/07/02 08:22:35;;;;;;;9.13;5.07;;;28.20;6.80;;;;;;5049466;28;21039;-65
2023/07/02 08:25:02;;;;;;;9.07;4.97;;;31.60;2.20;;;;;;5047730;28;20466;-65
2023/07/02 08:27:29;;;;;;;8.67;4.90;;;32.80;1.00;;;;;;5047305;28;20958;-65
2023/07/02 08:29:57;;;;;;;8.03;4.70;;;31.80;1.00;;;;;;5048427;28;20466;-65
2023/07/02 08:32:23;;;;;;;7.80;4.53;;;30.80;1.00;;;;;;5047532;28;20478;-64
2023/07/02 08:34:51;;;;;;;12.50;5.30;;;30.00;1.00;;;;;;5045731;28;20496;-64
2023/07/02 08:37:18;;;;;;;8.70;5.67;;;29.20;1.10;;;;;;5057739;22;21206;-68
2023/07/02 08:39:44;;;;;;;11.87;6.50;;;28.60;2.30;;;;;;5047134;28;20852;-68
2023/07/02 08:42:11;;;;;;;10.67;4.87;;;28.20;3.40;;;;;;5047912;28;20888;-69
2023/07/02 08:44:38;;;;;;;9.10;5.10;;;27.80;3.50;;;;;;5047432;28;20486;-69
2023/07/02 08:47:06;;;;;;;9.27;5.00;;;27.60;4.00;;;;;;5043505;28;20471;-69
2023/07/02 08:49:33;;;;;;;11.83;5.77;;;27.30;5.00;;;;;;5047479;28;20469;-69
2023/07/02 08:52:00;;;;;;;12.57;7.57;;;27.20;5.60;;;;;;5048561;28;20461;-69
2023/07/02 08:54:27;;;;;;;10.87;7.23;;;27.00;6.00;;;;;;5046287;28;20478;-69
2023/07/02 08:56:53;;;;;;;11.40;6.87;;;26.70;5.00;;;;;;5048161;28;20951;-69
2023/07/02 08:59:20;;;;;;;10.83;7.07;;;26.50;5.80;;;;;;5042422;28;20557;-69
2023/07/02 09:01:47;;;;;;;15.53;8.67;;;26.40;6.90;;;;;;5044967;28;20462;-69
2023/07/02 09:04:20;;;;;;;11.23;7.30;;;26.30;6.40;;;;;;5046232;28;20531;-69
2023/07/02 09:06:47;;;;;;;10.47;6.80;;;26.40;5.80;;;;;;5042705;28;20462;-69
2023/07/02 09:09:14;;;;;;;11.67;6.87;;;27.00;4.70;;;;;;5045153;28;20483;-69
2023/07/02 09:11:51;;;;;;;14.47;6.70;;;28.10;3.40;;;;;;5047643;28;20477;-69
2023/07/02 09:14:28;;;;;;;11.50;7.60;;;28.50;1.00;;;;;;5047712;28;20532;-69
2023/07/02 09:17:06;;;;;;;8.23;5.80;;;29.40;1.00;;;;;;5046164;28;20470;-69
2023/07/02 09:19:34;;;;;;;10.57;6.73;;;32.10;1.00;;;;;;5045144;28;20483;-69
2023/07/02 09:22:01;;;;;;;10.30;7.07;;;34.50;1.00;;;;;;5043541;28;20544;-69
2023/07/02 09:24:30;;;;;;;12.20;7.10;;;35.80;1.00;;;;;;5045328;28;20482;-68
2023/07/02 09:26:58;;;;;;;12.27;7.67;;;36.00;1.00;;;;;;5045792;28;20488;-69
2023/07/02 09:29:28;;;;;;;10.53;7.20;;;36.10;1.00;;;;;;5044657;28;20469;-69
2023/07/02 09:31:55;;;;;;;9.30;6.27;;;35.90;1.00;;;;;;5045396;28;20502;-69
2023/07/02 09:34:27;;;;;;;11.00;7.50;;;35.70;1.00;;;;;;5044978;28;20489;-69
2023/07/02 09:36:56;;;;;;;9.80;6.83;;;35.20;1.00;;;;;;5047063;28;20458;-70
2023/07/02 09:39:27;;;;;;;11.40;8.10;;;34.60;1.00;;;;;;5044695;28;20481;-69
2023/07/02 09:41:55;;;;;;;12.93;8.43;;;33.80;1.00;;;;;;5046231;28;20856;-69
2023/07/02 09:44:23;;;;;;;12.93;9.00;;;33.00;1.00;;;;;;5043837;28;20482;-69
2023/07/02 09:46:56;;;;;;;10.20;7.27;;;32.50;1.00;;;;;;5045847;28;20468;-69
2023/07/02 09:49:25;;;;;;;13.50;8.80;;;32.10;1.00;;;;;;5041364;28;20454;-69
2023/07/02 09:51:52;;;;;;;14.83;9.30;;;31.60;1.00;;;;;;5043709;28;20458;-69
2023/07/02 09:54:20;;;;;;;11.57;8.37;;;31.30;1.00;;;;;;5042775;28;21028;-69
2023/07/02 09:56:47;;;;;;;11.67;8.67;;;31.00;1.00;;;;;;5045272;28;20486;-74
2023/07/02 09:59:14;;;;;;;12.30;8.57;;;30.70;1.00;;;;;;5046150;28;20524;-74
2023/07/02 10:01:41;;;;;;;13.03;9.30;;;30.50;1.00;;;;;;5044327;28;20470;-74
2023/07/02 10:04:13;;;;;;;15.50;8.90;;;30.10;1.00;;;;;;5043029;28;20478;-74
2023/07/02 10:06:47;;;;;;;15.27;8.73;;;29.60;1.00;;;;;;5048418;28;20477;-73
2023/07/02 10:09:14;;;;;;;14.30;7.97;;;29.30;1.00;;;;;;5046729;28;20457;-73
2023/07/02 10:11:42;;;;;;;12.27;8.50;;;29.00;1.00;;;;;;5045604;28;20829;-73
2023/07/02 10:14:08;;;;;;;16.67;10.57;;;28.80;1.00;;;;;;5047070;28;20481;-72
2023/07/02 10:16:35;;;;;;;13.43;9.60;;;28.60;1.00;;;;;;5044812;28;20466;-73
2023/07/02 10:19:11;;;;;;;12.90;8.97;;;28.50;1.00;;;;;;5047513;28;20454;-73
2023/07/02 10:21:39;;;;;;;14.37;9.80;;;28.40;1.00;;;;;;5046501;28;20454;-73
2023/07/02 10:24:13;;;;;;;14.33;9.93;;;28.00;1.00;;;;;;5045539;28;20496;-73
2023/07/02 10:26:40;;;;;;;15.67;10.17;;;27.70;1.00;;;;;;5047451;28;20469;-73
2023/07/02 10:29:08;;;;;;;15.50;9.50;;;27.40;1.00;;;;;;5046945;28;20462;-73
2023/07/02 10:31:35;;;;;;;14.13;10.03;;;27.20;1.00;;;;;;5045433;28;22796;-73
2023/07/02 10:34:02;;;;;;;14.87;10.20;;;27.20;2.00;;;;;;5046775;28;20478;-73
2023/07/02 10:36:28;;;;;;;14.50;10.40;;;27.10;1.00;;;;;;5045012;28;20861;-72
2023/07/02 10:39:04;;;;;;;14.20;9.77;;;27.00;1.60;;;;;;5041026;28;20466;-73
2023/07/02 10:41:31;;;;;;;15.80;11.47;;;26.90;1.00;;;;;;5044319;28;20462;-73
2023/07/02 10:44:08;;;;;;;13.87;10.40;;;26.90;2.50;;;;;;5046206;28;20485;-73
2023/07/02 10:46:35;;;;;;;16.43;10.27;;;26.80;1.80;;;;;;5044934;28;20458;-72
2023/07/02 10:49:01;;;;;;;17.17;10.30;;;26.70;3.50;;;;;;5047010;28;20963;-72
2023/07/02 10:51:29;;;;;;;18.03;11.30;;;26.80;3.60;;;;;;5046804;28;20477;-72
2023/07/02 10:53:59;;;;;;;14.73;9.83;;;26.70;2.30;;;;;;5050390;28;20474;-72
2023/07/02 10:56:27;;;;;;;17.17;11.10;;;26.70;2.10;;;;;;5050456;28;21330;-71
2023/07/02 10:58:54;;;;;;;17.87;11.33;;;26.60;1.40;;;;;;5049205;28;20458;-72
2023/07/02 11:01:27;;;;;;;15.63;10.97;;;26.60;1.00;;;;;;5048122;28;20785;-71
2023/07/02 11:03:58;;;;;;;16.17;10.80;;;26.60;1.80;;;;;;5050188;28;20481;-72
2023/07/02 11:06:25;;;;;;;15.93;11.77;;;26.50;1.00;;;;;;5051107;28;20490;-72
2023/07/02 11:08:52;;;;;;;16.60;12.50;;;26.50;1.00;;;;;;5051594;28;20856;-73
2023/07/02 11:11:19;;;;;;;19.47;12.50;;;26.50;1.00;;;;;;5048946;28;20458;-72
2023/07/02 11:13:46;;;;;;;16.10;10.80;;;26.60;1.00;;;;;;5048549;28;20481;-72
2023/07/02 11:16:25;;;;;;;17.40;11.70;;;26.60;1.00;;;;;;5050818;28;20535;-74
2023/07/02 11:18:54;;;;;;;19.27;12.80;;;26.60;1.00;;;;;;5044853;28;20519;-72
2023/07/02 11:21:20;;;;;;;20.00;12.90;;;26.60;1.00;;;;;;5048253;28;20517;-72
2023/07/02 11:23:47;;;;;;;20.07;13.70;;;26.60;1.00;;;;;;5042486;28;20494;-72
2023/07/02 11:26:14;;;;;;;18.70;12.70;;;26.70;1.00;;;;;;5050086;28;20481;-72
2023/07/02 11:28:51;;;;;;;19.60;13.40;;;26.60;1.00;;;;;;5050073;28;20465;-72
2023/07/02 11:31:26;;;;;;;17.60;13.27;;;26.70;1.00;;;;;;5049472;28;20490;-72
2023/07/02 11:33:55;;;;;;;18.60;13.93;;;26.80;1.00;;;;;;5046154;28;20501;-72
2023/07/02 11:36:23;;;;;;;17.63;12.80;;;26.70;1.00;;;;;;5050331;28;20453;-72
2023/07/02 11:38:50;;;;;;;20.70;14.43;;;26.80;1.00;;;;;;5048397;28;20490;-72
2023/07/02 11:41:17;;;;;;;18.77;13.23;;;26.70;1.00;;;;;;5048785;28;20510;-72
2023/07/02 11:43:44;;;;;;;19.67;14.70;;;26.70;1.00;;;;;;5049199;28;20532;-72
2023/07/02 11:46:11;;;;;;;20.40;14.50;;;26.70;1.00;;;;;;5049661;28;20464;-72
2023/07/02 11:48:38;;;;;;;22.60;16.80;;;26.70;1.00;;;;;;5050851;28;21025;-72
2023/07/02 11:51:06;;;;;;;22.93;15.43;;;26.70;1.00;;;;;;5050458;28;20806;-72
2023/07/02 11:53:32;;;;;;;20.23;14.63;;;26.60;1.00;;;;;;5046942;28;20493;-72
2023/07/02 11:55:59;;;;;;;20.00;15.13;;;26.60;1.00;;;;;;5048896;28;21303;-72
2023/07/02 11:58:26;;;;;;;22.43;16.07;;;26.40;1.00;;;;;;5050101;28;20466;-72
2023/07/02 12:00:52;;;;;;;21.70;16.13;;;26.30;1.00;;;;;;5047871;28;20477;-73
2023/07/02 12:03:19;;;;;;;20.50;15.77;;;26.20;1.00;;;;;;5041338;28;20483;-72
2023/07/02 12:05:46;;;;;;;21.80;16.80;;;26.20;1.00;;;;;;5048876;28;20982;-72
2023/07/02 12:08:14;;;;;;;22.00;16.63;;;26.30;1.00;;;;;;5044687;28;20466;-72
2023/07/02 12:10:41;;;;;;;23.17;16.67;;;26.30;1.00;;;;;;5050642;28;20458;-72
2023/07/02 12:13:08;;;;;;;23.67;17.47;;;26.30;1.00;;;;;;5045854;28;20492;-72
2023/07/02 12:15:35;;;;;;;21.77;15.93;;;26.40;1.00;;;;;;5048641;28;20462;-72
2023/07/02 12:18:01;;;;;;;22.80;17.43;;;26.50;1.00;;;;;;5049354;28;20466;-72
2023/07/02 12:20:28;;;;;;;23.43;18.50;;;26.50;1.00;;;;;;5048584;28;20876;-72
2023/07/02 12:22:55;;;;;;;26.07;19.50;;;26.50;1.00;;;;;;5047633;28;20465;-72
2023/07/02 12:25:23;;;;;;;23.70;17.57;;;26.50;1.00;;;;;;5050032;28;20477;-72
2023/07/02 12:27:50;;;;;;;23.90;19.30;;;26.50;1.00;;;;;;5047305;28;20461;-73
2023/07/02 12:30:17;;;;;;;26.47;18.63;;;26.60;1.00;;;;;;5048237;28;20581;-73
2023/07/02 12:32:44;;;;;;;23.90;18.63;;;26.50;1.00;;;;;;5045567;28;20470;-73
2023/07/02 12:35:11;;;;;;;25.33;18.63;;;26.50;1.00;;;;;;5047705;28;20466;-73
2023/07/02 12:37:44;;;;;;;24.50;19.67;;;26.60;1.00;;;;;;5046479;28;20482;-73
2023/07/02 12:40:12;;;;;;;23.73;18.40;;;26.70;1.00;;;;;;5046527;28;20517;-73
2023/07/02 12:42:41;;;;;;;24.23;18.20;;;26.70;1.00;;;;;;5048901;28;20480;-73
2023/07/02 12:45:09;;;;;;;22.43;17.10;;;26.90;1.00;;;;;;5046988;28;20469;-73
2023/07/02 12:47:36;;;;;;;21.97;17.30;;;27.00;1.00;;;;;;5048159;28;20466;-73